sensor_id;sensor_type;location;lat;lon;timestamp;pressure;altitude;pressure_sealevel;temperature;humidity
42067;BME280;27734;47.028;28.820;2023-12-22T00:02:28;98455.52;;;2.73;72.46
42067;BME280;27734;47.028;28.820;2023-12-22T00:05:00;98456.33;;;2.72;72.74
42067;BME280;27734;47.028;28.820;2023-12-22T00:07:31;98462.33;;;2.71;72.98
42067;BME280;27734;47.028;28.820;2023-12-22T00:10:02;98455.45;;;2.72;73.43
42067;BME280;27734;47.028;28.820;2023-12-22T00:12:33;98452.02;;;2.73;73.07
42067;BME280;27734;47.028;28.820;2023-12-22T00:15:05;98453.80;;;2.74;72.67
42067;BME280;27734;47.028;28.820;2023-12-22T00:17:36;98451.25;;;2.75;73.22
42067;BME280;27734;47.028;28.820;2023-12-22T00:20:09;98443.53;;;2.77;72.69
42067;BME280;27734;47.028;28.820;2023-12-22T00:22:43;98430.64;;;2.78;73.20
42067;BME280;27734;47.028;28.820;2023-12-22T00:25:14;98415.09;;;2.78;72.91
42067;BME280;27734;47.028;28.820;2023-12-22T00:27:45;98402.14;;;2.78;73.18
42067;BME280;27734;47.028;28.820;2023-12-22T00:30:16;98398.78;;;2.81;72.93
42067;BME280;27734;47.028;28.820;2023-12-22T00:32:47;98406.66;;;2.84;73.15
42067;BME280;27734;47.028;28.820;2023-12-22T00:35:19;98402.40;;;2.86;72.90
42067;BME280;27734;47.028;28.820;2023-12-22T00:37:50;98399.86;;;2.87;73.33
42067;BME280;27734;47.028;28.820;2023-12-22T00:40:22;98398.94;;;2.85;73.42
42067;BME280;27734;47.028;28.820;2023-12-22T00:42:54;98396.30;;;2.84;73.39
42067;BME280;27734;47.028;28.820;2023-12-22T00:45:25;98379.03;;;2.84;73.09
42067;BME280;27734;47.028;28.820;2023-12-22T00:47:56;98375.58;;;2.84;73.24
42067;BME280;27734;47.028;28.820;2023-12-22T00:50:27;98351.31;;;2.82;73.43
42067;BME280;27734;47.028;28.820;2023-12-22T00:52:58;98349.57;;;2.81;73.52
42067;BME280;27734;47.028;28.820;2023-12-22T00:55:29;98352.98;;;2.80;72.86
42067;BME280;27734;47.028;28.820;2023-12-22T00:58:00;98353.75;;;2.77;73.74
42067;BME280;27734;47.028;28.820;2023-12-22T01:00:32;98345.84;;;2.73;73.37
42067;BME280;27734;47.028;28.820;2023-12-22T01:03:03;98352.69;;;2.70;73.47
42067;BME280;27734;47.028;28.820;2023-12-22T01:05:34;98354.41;;;2.70;74.18
42067;BME280;27734;47.028;28.820;2023-12-22T01:08:06;98356.14;;;2.71;74.15
42067;BME280;27734;47.028;28.820;2023-12-22T01:10:37;98348.38;;;2.71;74.05
42067;BME280;27734;47.028;28.820;2023-12-22T01:13:08;98346.69;;;2.72;73.83
42067;BME280;27734;47.028;28.820;2023-12-22T01:15:39;98351.87;;;2.72;73.57
42067;BME280;27734;47.028;28.820;2023-12-22T01:18:13;98338.82;;;2.68;73.09
42067;BME280;27734;47.028;28.820;2023-12-22T01:20:44;98333.69;;;2.70;73.93
42067;BME280;27734;47.028;28.820;2023-12-22T01:23:15;98331.97;;;2.70;73.47
42067;BME280;27734;47.028;28.820;2023-12-22T01:25:46;98317.34;;;2.73;73.31
42067;BME280;27734;47.028;28.820;2023-12-22T01:28:18;98315.70;;;2.75;74.10
42067;BME280;27734;47.028;28.820;2023-12-22T01:30:49;98307.98;;;2.76;73.58
42067;BME280;27734;47.028;28.820;2023-12-22T01:33:20;98302.85;;;2.78;73.79
42067;BME280;27734;47.028;28.820;2023-12-22T01:35:51;98292.54;;;2.79;74.23
42067;BME280;27734;47.028;28.820;2023-12-22T01:38:22;98294.37;;;2.83;73.37
42067;BME280;27734;47.028;28.820;2023-12-22T01:40:54;98299.60;;;2.85;73.66
42067;BME280;27734;47.028;28.820;2023-12-22T01:43:25;98284.11;;;2.86;73.31
42067;BME280;27734;47.028;28.820;2023-12-22T01:45:57;98282.47;;;2.88;73.87
42067;BME280;27734;47.028;28.820;2023-12-22T01:48:29;98275.61;;;2.91;73.72
42067;BME280;27734;47.028;28.820;2023-12-22T01:51:02;98268.75;;;2.93;74.21
42067;BME280;27734;47.028;28.820;2023-12-22T01:53:35;98261.88;;;2.93;74.19
42067;BME280;27734;47.028;28.820;2023-12-22T01:56:07;98258.44;;;2.94;73.63
42067;BME280;27734;47.028;28.820;2023-12-22T01:58:39;98254.20;;;2.96;73.67
42067;BME280;27734;47.028;28.820;2023-12-22T02:01:17;98243.88;;;2.98;74.02
42067;BME280;27734;47.028;28.820;2023-12-22T02:03:50;98235.21;;;2.97;73.85
42067;BME280;27734;47.028;28.820;2023-12-22T02:06:22;98232.66;;;2.99;73.90
42067;BME280;27734;47.028;28.820;2023-12-22T02:08:55;98225.88;;;3.02;73.66
42067;BME280;27734;47.028;28.820;2023-12-22T02:11:26;98235.44;;;3.05;73.87
42067;BME280;27734;47.028;28.820;2023-12-22T02:13:58;98231.20;;;3.07;73.94
42067;BME280;27734;47.028;28.820;2023-12-22T02:16:37;98229.52;;;3.09;73.74
42067;BME280;27734;47.028;28.820;2023-12-22T02:19:20;98228.78;;;3.13;74.21
42067;BME280;27734;47.028;28.820;2023-12-22T02:22:03;98208.11;;;3.16;74.05
42067;BME280;27734;47.028;28.820;2023-12-22T02:24:35;98225.52;;;3.20;74.05
42067;BME280;27734;47.028;28.820;2023-12-22T02:27:13;98229.96;;;3.24;74.89
42067;BME280;27734;47.028;28.820;2023-12-22T02:29:48;98219.68;;;3.28;74.08
42067;BME280;27734;47.028;28.820;2023-12-22T02:32:25;98218.00;;;3.30;74.31
42067;BME280;27734;47.028;28.820;2023-12-22T02:34:58;98199.90;;;3.31;74.41
42067;BME280;27734;47.028;28.820;2023-12-22T02:37:34;98191.34;;;3.34;74.77
42067;BME280;27734;47.028;28.820;2023-12-22T02:40:07;98190.61;;;3.39;73.86
42067;BME280;27734;47.028;28.820;2023-12-22T02:42:39;98179.53;;;3.45;74.17
42067;BME280;27734;47.028;28.820;2023-12-22T02:45:16;98171.05;;;3.51;74.50
42067;BME280;27734;47.028;28.820;2023-12-22T02:47:48;98169.45;;;3.56;73.91
42067;BME280;27734;47.028;28.820;2023-12-22T02:50:19;98163.47;;;3.58;75.13
42067;BME280;27734;47.028;28.820;2023-12-22T02:52:50;98148.82;;;3.60;73.87
42067;BME280;27734;47.028;28.820;2023-12-22T02:55:21;98146.30;;;3.64;74.94
42067;BME280;27734;47.028;28.820;2023-12-22T02:57:53;98133.41;;;3.67;74.53
42067;BME280;27734;47.028;28.820;2023-12-22T03:00:24;98140.38;;;3.69;74.79
42067;BME280;27734;47.028;28.820;2023-12-22T03:02:55;98131.77;;;3.70;74.29
42067;BME280;27734;47.028;28.820;2023-12-22T03:05:26;98130.08;;;3.72;73.96
42067;BME280;27734;47.028;28.820;2023-12-22T03:08:00;98124.02;;;3.72;74.43
42067;BME280;27734;47.028;28.820;2023-12-22T03:10:31;98118.80;;;3.70;74.64
42067;BME280;27734;47.028;28.820;2023-12-22T03:13:03;98124.89;;;3.72;74.07
42067;BME280;27734;47.028;28.820;2023-12-22T03:15:34;98125.79;;;3.73;74.76
42067;BME280;27734;47.028;28.820;2023-12-22T03:18:05;98123.23;;;3.74;74.96
42067;BME280;27734;47.028;28.820;2023-12-22T03:20:36;98120.67;;;3.76;74.43
42067;BME280;27734;47.028;28.820;2023-12-22T03:23:08;98131.95;;;3.78;74.91
42067;BME280;27734;47.028;28.820;2023-12-22T03:25:39;98121.62;;;3.80;74.69
42067;BME280;27734;47.028;28.820;2023-12-22T03:28:10;98121.69;;;3.83;74.02
42067;BME280;27734;47.028;28.820;2023-12-22T03:30:42;98130.34;;;3.83;74.71
42067;BME280;27734;47.028;28.820;2023-12-22T03:33:13;98118.27;;;3.84;74.96
42067;BME280;27734;47.028;28.820;2023-12-22T03:35:44;98118.27;;;3.84;74.17
42067;BME280;27734;47.028;28.820;2023-12-22T03:38:15;98103.57;;;3.84;74.73
42067;BME280;27734;47.028;28.820;2023-12-22T03:40:47;98103.61;;;3.86;74.55
42067;BME280;27734;47.028;28.820;2023-12-22T03:43:18;98085.41;;;3.84;74.75
42067;BME280;27734;47.028;28.820;2023-12-22T03:45:49;98084.55;;;3.84;74.01
42067;BME280;27734;47.028;28.820;2023-12-22T03:48:20;98077.63;;;3.84;74.60
42067;BME280;27734;47.028;28.820;2023-12-22T03:50:51;98077.63;;;3.84;74.38
42067;BME280;27734;47.028;28.820;2023-12-22T03:53:24;98076.77;;;3.84;74.08
42067;BME280;27734;47.028;28.820;2023-12-22T03:55:58;98074.13;;;3.82;74.67
42067;BME280;27734;47.028;28.820;2023-12-22T03:58:32;98062.78;;;3.78;73.89
42067;BME280;27734;47.028;28.820;2023-12-22T04:01:03;98059.25;;;3.75;73.93
42067;BME280;27734;47.028;28.820;2023-12-22T04:03:37;98049.70;;;3.74;74.16
42067;BME280;27734;47.028;28.820;2023-12-22T04:06:08;98054.89;;;3.74;74.19
42067;BME280;27734;47.028;28.820;2023-12-22T04:08:39;98054.89;;;3.74;74.13
42067;BME280;27734;47.028;28.820;2023-12-22T04:11:10;98054.03;;;3.73;74.44
42067;BME280;27734;47.028;28.820;2023-12-22T04:13:41;98045.41;;;3.74;74.21
42067;BME280;27734;47.028;28.820;2023-12-22T04:16:12;98037.67;;;3.76;74.76
42067;BME280;27734;47.028;28.820;2023-12-22T04:18:44;98025.59;;;3.78;74.87
42067;BME280;27734;47.028;28.820;2023-12-22T04:21:15;98024.77;;;3.79;74.02
42067;BME280;27734;47.028;28.820;2023-12-22T04:23:46;98020.48;;;3.81;74.21
42067;BME280;27734;47.028;28.820;2023-12-22T04:26:17;98020.55;;;3.84;73.83
42067;BME280;27734;47.028;28.820;2023-12-22T04:28:48;98012.84;;;3.87;74.34
42067;BME280;27734;47.028;28.820;2023-12-22T04:31:19;98025.84;;;3.89;74.13
42067;BME280;27734;47.028;28.820;2023-12-22T04:33:50;98016.41;;;3.92;74.36
42067;BME280;27734;47.028;28.820;2023-12-22T04:36:25;98012.98;;;3.93;73.97
42067;BME280;27734;47.028;28.820;2023-12-22T04:38:56;97996.58;;;3.94;73.55
42067;BME280;27734;47.028;28.820;2023-12-22T04:41:27;97987.13;;;3.98;73.82
42067;BME280;27734;47.028;28.820;2023-12-22T04:43:58;97997.58;;;4.01;74.16
42067;BME280;27734;47.028;28.820;2023-12-22T04:46:32;97984.63;;;4.03;74.00
42067;BME280;27734;47.028;28.820;2023-12-22T04:49:03;97976.02;;;4.04;73.50
42067;BME280;27734;47.028;28.820;2023-12-22T04:51:34;97972.59;;;4.06;73.31
42067;BME280;27734;47.028;28.820;2023-12-22T04:54:06;97984.73;;;4.07;73.26
42067;BME280;27734;47.028;28.820;2023-12-22T04:56:37;97979.58;;;4.09;74.05
42067;BME280;27734;47.028;28.820;2023-12-22T04:59:08;97970.06;;;4.09;73.65
42067;BME280;27734;47.028;28.820;2023-12-22T05:01:39;97971.82;;;4.10;73.87
42067;BME280;27734;47.028;28.820;2023-12-22T05:04:12;97965.77;;;4.10;73.16
42067;BME280;27734;47.028;28.820;2023-12-22T05:06:44;97951.89;;;4.09;73.75
42067;BME280;27734;47.028;28.820;2023-12-22T05:09:17;97955.38;;;4.10;73.25
42067;BME280;27734;47.028;28.820;2023-12-22T05:11:48;97945.84;;;4.09;73.55
42067;BME280;27734;47.028;28.820;2023-12-22T05:14:19;97941.48;;;4.08;73.23
42067;BME280;27734;47.028;28.820;2023-12-22T05:16:50;97941.48;;;4.08;73.52
42067;BME280;27734;47.028;28.820;2023-12-22T05:19:24;97947.53;;;4.07;73.24
42067;BME280;27734;47.028;28.820;2023-12-22T05:21:55;97941.48;;;4.08;73.30
42067;BME280;27734;47.028;28.820;2023-12-22T05:24:27;97949.23;;;4.06;73.26
42067;BME280;27734;47.028;28.820;2023-12-22T05:26:58;97954.42;;;4.06;73.24
42067;BME280;27734;47.028;28.820;2023-12-22T05:29:29;97942.34;;;4.07;73.60
42067;BME280;27734;47.028;28.820;2023-12-22T05:32:00;97938.02;;;4.07;73.35
42067;BME280;27734;47.028;28.820;2023-12-22T05:34:34;97941.52;;;4.09;72.99
42067;BME280;27734;47.028;28.820;2023-12-22T05:37:08;97942.44;;;4.11;73.67
42067;BME280;27734;47.028;28.820;2023-12-22T05:39:41;97932.92;;;4.12;73.13
42067;BME280;27734;47.028;28.820;2023-12-22T05:42:13;97924.30;;;4.13;73.01
42067;BME280;27734;47.028;28.820;2023-12-22T05:44:45;97926.90;;;4.13;73.04
42067;BME280;27734;47.028;28.820;2023-12-22T05:47:19;97924.30;;;4.13;73.65
42067;BME280;27734;47.028;28.820;2023-12-22T05:49:50;97923.44;;;4.14;73.09
42067;BME280;27734;47.028;28.820;2023-12-22T05:52:21;97919.14;;;4.14;73.57
42067;BME280;27734;47.028;28.820;2023-12-22T05:54:53;97928.66;;;4.16;73.11
42067;BME280;27734;47.028;28.820;2023-12-22T05:57:26;97929.55;;;4.16;73.05
42067;BME280;27734;47.028;28.820;2023-12-22T05:59:57;97938.20;;;4.17;73.10
42067;BME280;27734;47.028;28.820;2023-12-22T06:02:28;97941.66;;;4.17;73.56
42067;BME280;27734;47.028;28.820;2023-12-22T06:04:59;97922.55;;;4.12;73.11
42067;BME280;27734;47.028;28.820;2023-12-22T06:07:33;97941.73;;;4.20;73.51
42067;BME280;27734;47.028;28.820;2023-12-22T06:10:05;97930.48;;;4.20;73.18
42067;BME280;27734;47.028;28.820;2023-12-22T06:12:36;97921.83;;;4.19;73.57
42067;BME280;27734;47.028;28.820;2023-12-22T06:15:10;97918.34;;;4.19;73.13
42067;BME280;27734;47.028;28.820;2023-12-22T06:17:41;97908.85;;;4.19;73.60
42067;BME280;27734;47.028;28.820;2023-12-22T06:20:13;97911.36;;;4.14;73.47
42067;BME280;27734;47.028;28.820;2023-12-22T06:22:45;97911.41;;;4.18;72.81
42067;BME280;27734;47.028;28.820;2023-12-22T06:25:17;97911.41;;;4.18;73.35
42067;BME280;27734;47.028;28.820;2023-12-22T06:27:48;97915.74;;;4.19;73.09
42067;BME280;27734;47.028;28.820;2023-12-22T06:30:24;97907.98;;;4.20;73.44
42067;BME280;27734;47.028;28.820;2023-12-22T06:32:55;97925.32;;;4.21;73.31
42067;BME280;27734;47.028;28.820;2023-12-22T06:35:26;97925.38;;;4.24;73.32
42067;BME280;27734;47.028;28.820;2023-12-22T06:37:58;97933.23;;;4.27;73.96
42067;BME280;27734;47.028;28.820;2023-12-22T06:40:35;97906.40;;;4.28;73.29
42067;BME280;27734;47.028;28.820;2023-12-22T06:43:06;97908.16;;;4.29;73.64
42067;BME280;27734;47.028;28.820;2023-12-22T06:45:37;97903.86;;;4.31;73.86
42067;BME280;27734;47.028;28.820;2023-12-22T06:48:10;97906.46;;;4.31;73.66
42067;BME280;27734;47.028;28.820;2023-12-22T06:50:41;97914.30;;;4.35;73.77
42067;BME280;27734;47.028;28.820;2023-12-22T06:53:14;97905.71;;;4.37;73.40
42067;BME280;27734;47.028;28.820;2023-12-22T06:55:46;97895.36;;;4.39;73.26
42067;BME280;27734;47.028;28.820;2023-12-22T06:58:17;97891.11;;;4.44;74.02
42067;BME280;27734;47.028;28.820;2023-12-22T07:00:53;97878.23;;;4.50;73.57
42067;BME280;27734;47.028;28.820;2023-12-22T07:03:26;97888.68;;;4.53;73.80
42067;BME280;27734;47.028;28.820;2023-12-22T07:06:03;97871.45;;;4.57;73.32
42067;BME280;27734;47.028;28.820;2023-12-22T07:08:35;97867.17;;;4.60;73.93
42067;BME280;27734;47.028;28.820;2023-12-22T07:11:07;97858.63;;;4.66;73.81
42067;BME280;27734;47.028;28.820;2023-12-22T07:13:40;97858.70;;;4.71;73.38
42067;BME280;27734;47.028;28.820;2023-12-22T07:16:13;97860.45;;;4.73;73.29
42067;BME280;27734;47.028;28.820;2023-12-22T07:18:46;97857.94;;;4.78;73.90
42067;BME280;27734;47.028;28.820;2023-12-22T07:21:41;97856.27;;;4.83;73.63
42067;BME280;27734;47.028;28.820;2023-12-22T07:24:13;97845.09;;;4.87;73.69
42067;BME280;27734;47.028;28.820;2023-12-22T07:26:48;97838.18;;;4.89;73.77
42067;BME280;27734;47.028;28.820;2023-12-22T07:29:18;97842.54;;;4.90;73.64
42067;BME280;27734;47.028;28.820;2023-12-22T07:31:50;97826.04;;;4.86;73.60
42067;BME280;27734;47.028;28.820;2023-12-22T07:34:22;97827.81;;;4.91;73.67
42067;BME280;27734;47.028;28.820;2023-12-22T07:36:55;97832.20;;;4.93;73.54
42067;BME280;27734;47.028;28.820;2023-12-22T07:39:39;97834.00;;;4.97;73.99
42067;BME280;27734;47.028;28.820;2023-12-22T07:42:24;97841.89;;;5.03;73.64
42067;BME280;27734;47.028;28.820;2023-12-22T07:45:18;97843.64;;;5.06;73.67
42067;BME280;27734;47.028;28.820;2023-12-22T07:47:51;97854.98;;;5.10;73.38
42067;BME280;27734;47.028;28.820;2023-12-22T07:50:28;97837.72;;;5.15;73.79
42067;BME280;27734;47.028;28.820;2023-12-22T07:53:25;97838.66;;;5.21;73.96
42067;BME280;27734;47.028;28.820;2023-12-22T07:55:56;97833.53;;;5.26;73.33
42067;BME280;27734;47.028;28.820;2023-12-22T07:58:29;97831.83;;;5.27;73.40
42067;BME280;27734;47.028;28.820;2023-12-22T08:01:06;97824.03;;;5.27;73.37
42067;BME280;27734;47.028;28.820;2023-12-22T08:03:37;97814.49;;;5.27;73.56
42067;BME280;27734;47.028;28.820;2023-12-22T08:06:09;97825.75;;;5.28;73.51
42067;BME280;27734;47.028;28.820;2023-12-22T08:08:42;97837.04;;;5.30;73.17
42067;BME280;27734;47.028;28.820;2023-12-22T08:11:14;97828.46;;;5.35;73.45
42067;BME280;27734;47.028;28.820;2023-12-22T08:13:45;97831.14;;;5.42;73.55
42067;BME280;27734;47.028;28.820;2023-12-22T08:16:19;97839.03;;;5.48;73.18
42067;BME280;27734;47.028;28.820;2023-12-22T08:18:53;97839.07;;;5.51;73.54
42067;BME280;27734;47.028;28.820;2023-12-22T08:21:26;97831.33;;;5.55;73.17
42067;BME280;27734;47.028;28.820;2023-12-22T08:24:00;97828.77;;;5.58;73.02
42067;BME280;27734;47.028;28.820;2023-12-22T08:26:32;97798.41;;;5.59;73.09
42067;BME280;27734;47.028;28.820;2023-12-22T08:29:04;97804.55;;;5.63;72.88
42067;BME280;27734;47.028;28.820;2023-12-22T08:31:38;97800.20;;;5.63;72.27
42067;BME280;27734;47.028;28.820;2023-12-22T08:34:09;97799.33;;;5.61;72.68
42067;BME280;27734;47.028;28.820;2023-12-22T08:36:41;97792.42;;;5.65;72.56
42067;BME280;27734;47.028;28.820;2023-12-22T08:39:13;97788.14;;;5.70;72.57
42067;BME280;27734;47.028;28.820;2023-12-22T08:41:46;97789.10;;;5.76;72.89
42067;BME280;27734;47.028;28.820;2023-12-22T08:44:18;97777.84;;;5.81;72.79
42067;BME280;27734;47.028;28.820;2023-12-22T08:46:49;97782.30;;;5.89;72.87
42067;BME280;27734;47.028;28.820;2023-12-22T08:49:23;97775.40;;;5.94;72.66
42067;BME280;27734;47.028;28.820;2023-12-22T08:51:55;97771.95;;;5.96;72.33
42067;BME280;27734;47.028;28.820;2023-12-22T08:54:26;97769.34;;;5.96;72.79
42067;BME280;27734;47.028;28.820;2023-12-22T08:56:57;97772.88;;;5.99;72.74
42067;BME280;27734;47.028;28.820;2023-12-22T08:59:28;97766.88;;;6.05;72.79
42067;BME280;27734;47.028;28.820;2023-12-22T09:02:00;97759.13;;;6.13;72.42
42067;BME280;27734;47.028;28.820;2023-12-22T09:04:32;97762.67;;;6.21;72.75
42067;BME280;27734;47.028;28.820;2023-12-22T09:07:03;97758.30;;;6.18;71.89
42067;BME280;27734;47.028;28.820;2023-12-22T09:09:36;97754.80;;;6.15;72.10
42067;BME280;27734;47.028;28.820;2023-12-22T09:12:08;97761.77;;;6.16;72.03
42067;BME280;27734;47.028;28.820;2023-12-22T09:14:40;97757.39;;;6.13;71.90
42067;BME280;27734;47.028;28.820;2023-12-22T09:17:11;97752.17;;;6.11;72.09
42067;BME280;27734;47.028;28.820;2023-12-22T09:19:44;97757.44;;;6.18;72.44
42067;BME280;27734;47.028;28.820;2023-12-22T09:22:17;97756.62;;;6.23;72.02
42067;BME280;27734;47.028;28.820;2023-12-22T09:24:48;97753.14;;;6.24;71.17
42067;BME280;27734;47.028;28.820;2023-12-22T09:27:20;97750.58;;;6.29;71.53
42067;BME280;27734;47.028;28.820;2023-12-22T09:29:51;97751.48;;;6.34;71.71
42067;BME280;27734;47.028;28.820;2023-12-22T09:32:22;97728.11;;;6.42;72.01
42067;BME280;27734;47.028;28.820;2023-12-22T09:35:03;97729.90;;;6.47;71.94
42067;BME280;27734;47.028;28.820;2023-12-22T09:37:34;97723.88;;;6.55;72.12
42067;BME280;27734;47.028;28.820;2023-12-22T09:40:07;97723.05;;;6.62;71.74
42067;BME280;27734;47.028;28.820;2023-12-22T09:42:38;97716.16;;;6.67;71.75
42067;BME280;27734;47.028;28.820;2023-12-22T09:45:12;97714.44;;;6.72;71.53
42067;BME280;27734;47.028;28.820;2023-12-22T09:47:44;97711.88;;;6.80;71.75
42067;BME280;27734;47.028;28.820;2023-12-22T09:50:18;97706.69;;;6.83;71.61
42067;BME280;27734;47.028;28.820;2023-12-22T09:52:52;97705.81;;;6.86;71.94
42067;BME280;27734;47.028;28.820;2023-12-22T09:55:26;97721.48;;;6.92;71.72
42067;BME280;27734;47.028;28.820;2023-12-22T09:58:01;97710.25;;;7.00;71.67
42067;BME280;27734;47.028;28.820;2023-12-22T10:00:48;97704.25;;;7.15;71.23
42067;BME280;27734;47.028;28.820;2023-12-22T10:03:20;97702.58;;;7.33;70.54
42067;BME280;27734;47.028;28.820;2023-12-22T10:05:52;97690.41;;;7.38;71.40
42067;BME280;27734;47.028;28.820;2023-12-22T10:08:25;97682.61;;;7.44;71.46
42067;BME280;27734;47.028;28.820;2023-12-22T10:10:58;97690.45;;;7.49;71.47
42067;BME280;27734;47.028;28.820;2023-12-22T10:13:32;97693.05;;;7.49;71.04
42067;BME280;27734;47.028;28.820;2023-12-22T10:16:08;97685.23;;;7.50;71.44
42067;BME280;27734;47.028;28.820;2023-12-22T10:18:43;97682.64;;;7.56;71.55
42067;BME280;27734;47.028;28.820;2023-12-22T10:21:15;97678.30;;;7.62;71.78
42067;BME280;27734;47.028;28.820;2023-12-22T10:23:47;97674.83;;;7.63;71.33
42067;BME280;27734;47.028;28.820;2023-12-22T10:26:21;97672.23;;;7.67;71.44
42067;BME280;27734;47.028;28.820;2023-12-22T10:28:52;97670.48;;;7.71;70.99
42067;BME280;27734;47.028;28.820;2023-12-22T10:31:26;97677.47;;;7.75;71.39
42067;BME280;27734;47.028;28.820;2023-12-22T10:33:58;97671.39;;;7.78;71.14
42067;BME280;27734;47.028;28.820;2023-12-22T10:36:29;97673.11;;;7.80;71.00
42067;BME280;27734;47.028;28.820;2023-12-22T10:39:00;97659.20;;;7.80;70.71
42067;BME280;27734;47.028;28.820;2023-12-22T10:41:32;97674.86;;;7.81;70.69
42067;BME280;27734;47.028;28.820;2023-12-22T10:44:06;97667.89;;;7.82;70.65
42067;BME280;27734;47.028;28.820;2023-12-22T10:46:38;97668.78;;;7.81;70.50
42067;BME280;27734;47.028;28.820;2023-12-22T10:49:10;97673.12;;;7.85;70.66
42067;BME280;27734;47.028;28.820;2023-12-22T10:51:41;97674.88;;;7.87;70.73
42067;BME280;27734;47.028;28.820;2023-12-22T10:54:13;97667.91;;;7.91;70.07
42067;BME280;27734;47.028;28.820;2023-12-22T10:56:44;97657.47;;;7.96;70.98
42067;BME280;27734;47.028;28.820;2023-12-22T10:59:18;97658.33;;;8.01;70.08
42067;BME280;27734;47.028;28.820;2023-12-22T11:01:51;97641.80;;;8.03;70.34
42067;BME280;27734;47.028;28.820;2023-12-22T11:04:25;97626.12;;;8.08;70.05
42067;BME280;27734;47.028;28.820;2023-12-22T11:07:02;97640.05;;;8.15;69.86
42067;BME280;27734;47.028;28.820;2023-12-22T11:09:38;97650.49;;;8.22;70.15
42067;BME280;27734;47.028;28.820;2023-12-22T11:12:12;97649.62;;;8.26;69.96
42067;BME280;27734;47.028;28.820;2023-12-22T11:14:45;97647.02;;;8.30;70.15
42067;BME280;27734;47.028;28.820;2023-12-22T11:17:21;97667.05;;;8.32;70.27
42067;BME280;27734;47.028;28.820;2023-12-22T11:19:54;97669.67;;;8.32;69.47
42067;BME280;27734;47.028;28.820;2023-12-22T11:22:27;97667.92;;;8.30;69.85
42067;BME280;27734;47.028;28.820;2023-12-22T11:24:59;97666.16;;;8.28;70.00
42067;BME280;27734;47.028;28.820;2023-12-22T11:27:34;97660.08;;;8.23;69.31
42067;BME280;27734;47.028;28.820;2023-12-22T11:30:09;97653.11;;;8.16;69.57
42067;BME280;27734;47.028;28.820;2023-12-22T11:32:42;97648.78;;;8.07;69.19
42067;BME280;27734;47.028;28.820;2023-12-22T11:35:13;97659.22;;;8.00;69.59
42067;BME280;27734;47.028;28.820;2023-12-22T11:37:50;97654.84;;;7.91;69.01
42067;BME280;27734;47.028;28.820;2023-12-22T11:40:25;97664.42;;;7.81;69.07
42067;BME280;27734;47.028;28.820;2023-12-22T11:42:57;97659.19;;;7.75;69.04
42067;BME280;27734;47.028;28.820;2023-12-22T11:45:51;97646.98;;;7.68;69.52
42067;BME280;27734;47.028;28.820;2023-12-22T11:48:24;97652.20;;;7.63;69.00
42067;BME280;27734;47.028;28.820;2023-12-22T11:51:00;97651.34;;;7.63;69.36
42067;BME280;27734;47.028;28.820;2023-12-22T11:53:34;97642.66;;;7.62;69.29
42067;BME280;27734;47.028;28.820;2023-12-22T11:56:07;97636.54;;;7.63;69.17
42067;BME280;27734;47.028;28.820;2023-12-22T11:58:46;97625.25;;;7.66;69.01
42067;BME280;27734;47.028;28.820;2023-12-22T12:01:23;97633.08;;;7.69;69.55
42067;BME280;27734;47.028;28.820;2023-12-22T12:03:57;97618.28;;;7.71;68.99
42067;BME280;27734;47.028;28.820;2023-12-22T12:06:34;97611.34;;;7.73;69.40
42067;BME280;27734;47.028;28.820;2023-12-22T12:09:18;97614.81;;;7.72;69.13
42067;BME280;27734;47.028;28.820;2023-12-22T12:12:13;97618.28;;;7.69;69.51
42067;BME280;27734;47.028;28.820;2023-12-22T12:14:57;97624.39;;;7.67;68.99
42067;BME280;27734;47.028;28.820;2023-12-22T12:17:32;97629.61;;;7.67;69.13
42067;BME280;27734;47.028;28.820;2023-12-22T12:20:03;97622.64;;;7.69;68.86
42067;BME280;27734;47.028;28.820;2023-12-22T12:22:44;97636.55;;;7.68;69.28
42067;BME280;27734;47.028;28.820;2023-12-22T12:25:17;97632.22;;;7.65;68.87
42067;BME280;27734;47.028;28.820;2023-12-22T12:27:50;97633.08;;;7.66;69.24
42067;BME280;27734;47.028;28.820;2023-12-22T12:30:29;97639.16;;;7.66;68.77
42067;BME280;27734;47.028;28.820;2023-12-22T12:33:07;97641.77;;;7.69;69.44
42067;BME280;27734;47.028;28.820;2023-12-22T12:35:48;97638.30;;;7.67;69.31
42067;BME280;27734;47.028;28.820;2023-12-22T12:38:36;97647.89;;;7.71;69.18
42067;BME280;27734;47.028;28.820;2023-12-22T12:41:12;97648.75;;;7.73;69.11
42067;BME280;27734;47.028;28.820;2023-12-22T12:43:45;97656.58;;;7.73;69.03
42067;BME280;27734;47.028;28.820;2023-12-22T12:46:19;97664.41;;;7.77;68.89
42067;BME280;27734;47.028;28.820;2023-12-22T12:49:05;97669.64;;;7.78;69.08
42067;BME280;27734;47.028;28.820;2023-12-22T12:51:41;97674.00;;;7.79;69.09
42067;BME280;27734;47.028;28.820;2023-12-22T12:54:18;97692.27;;;7.79;69.15
42067;BME280;27734;47.028;28.820;2023-12-22T12:57:05;97700.11;;;7.79;68.64
42067;BME280;27734;47.028;28.820;2023-12-22T12:59:38;97706.19;;;7.78;69.30
42067;BME280;27734;47.028;28.820;2023-12-22T13:02:12;97707.94;;;7.78;69.08
42067;BME280;27734;47.028;28.820;2023-12-22T13:04:44;97715.77;;;7.76;68.66
42067;BME280;27734;47.028;28.820;2023-12-22T13:07:29;97715.73;;;7.65;69.41
42067;BME280;27734;47.028;28.820;2023-12-22T13:10:00;97733.12;;;7.69;68.80
42067;BME280;27734;47.028;28.820;2023-12-22T13:12:39;97751.38;;;7.66;68.86
42067;BME280;27734;47.028;28.820;2023-12-22T13:15:12;97757.48;;;7.64;68.54
42067;BME280;27734;47.028;28.820;2023-12-22T13:17:44;97764.41;;;7.60;68.42
42067;BME280;27734;47.028;28.820;2023-12-22T13:20:26;97780.06;;;7.59;69.07
42067;BME280;27734;47.028;28.820;2023-12-22T13:22:58;97773.97;;;7.55;68.83
42067;BME280;27734;47.028;28.820;2023-12-22T13:25:41;97776.56;;;7.52;68.71
42067;BME280;27734;47.028;28.820;2023-12-22T13:28:15;97771.33;;;7.49;68.70
42067;BME280;27734;47.028;28.820;2023-12-22T13:30:58;97785.23;;;7.48;68.74
42067;BME280;27734;47.028;28.820;2023-12-22T13:33:36;97787.84;;;7.46;68.66